sensor_id;sensor_type;location;lat;lon;timestamp;temperature;humidity
3069;DHT22;1545;51.728;8.796;2023-02-13T00:01:59;7.20;98.80
3069;DHT22;1545;51.728;8.796;2023-02-13T00:04:25;7.20;98.80
3069;DHT22;1545;51.728;8.796;2023-02-13T00:06:50;7.20;98.80
3069;DHT22;1545;51.728;8.796;2023-02-13T00:09:16;7.20;98.80
3069;DHT22;1545;51.728;8.796;2023-02-13T00:11:42;7.30;98.80
3069;DHT22;1545;51.728;8.796;2023-02-13T00:14:07;7.20;98.80
3069;DHT22;1545;51.728;8.796;2023-02-13T00:16:33;7.30;98.80
3069;DHT22;1545;51.728;8.796;2023-02-13T00:18:58;7.30;98.80
3069;DHT22;1545;51.728;8.796;2023-02-13T00:21:24;7.30;98.80
3069;DHT22;1545;51.728;8.796;2023-02-13T00:23:49;7.40;98.80
3069;DHT22;1545;51.728;8.796;2023-02-13T00:26:16;7.50;98.80
3069;DHT22;1545;51.728;8.796;2023-02-13T00:28:42;7.50;98.80
3069;DHT22;1545;51.728;8.796;2023-02-13T00:31:09;7.50;98.80
3069;DHT22;1545;51.728;8.796;2023-02-13T00:33:35;7.50;98.80
3069;DHT22;1545;51.728;8.796;2023-02-13T00:36:11;7.50;98.80
3069;DHT22;1545;51.728;8.796;2023-02-13T00:38:38;7.40;98.80
3069;DHT22;1545;51.728;8.796;2023-02-13T00:41:04;7.40;98.80
3069;DHT22;1545;51.728;8.796;2023-02-13T00:43:30;7.40;98.80
3069;DHT22;1545;51.728;8.796;2023-02-13T00:45:56;7.50;98.80
3069;DHT22;1545;51.728;8.796;2023-02-13T00:48:23;7.40;98.80
3069;DHT22;1545;51.728;8.796;2023-02-13T00:50:49;7.40;98.80
3069;DHT22;1545;51.728;8.796;2023-02-13T00:53:17;7.40;98.80
3069;DHT22;1545;51.728;8.796;2023-02-13T00:55:42;7.50;98.80
3069;DHT22;1545;51.728;8.796;2023-02-13T00:58:08;7.50;98.80
3069;DHT22;1545;51.728;8.796;2023-02-13T01:00:34;7.50;98.80
3069;DHT22;1545;51.728;8.796;2023-02-13T01:02:59;7.50;98.80
3069;DHT22;1545;51.728;8.796;2023-02-13T01:05:24;7.50;98.80
3069;DHT22;1545;51.728;8.796;2023-02-13T01:07:52;7.50;98.80
3069;DHT22;1545;51.728;8.796;2023-02-13T01:10:17;7.50;98.80
3069;DHT22;1545;51.728;8.796;2023-02-13T01:12:43;7.50;98.80
3069;DHT22;1545;51.728;8.796;2023-02-13T01:15:09;7.50;98.80
3069;DHT22;1545;51.728;8.796;2023-02-13T01:17:34;7.50;98.80
3069;DHT22;1545;51.728;8.796;2023-02-13T01:20:00;7.50;98.80
3069;DHT22;1545;51.728;8.796;2023-02-13T01:22:25;7.50;98.80
3069;DHT22;1545;51.728;8.796;2023-02-13T01:24:51;7.60;98.80
3069;DHT22;1545;51.728;8.796;2023-02-13T01:27:16;7.50;98.80
3069;DHT22;1545;51.728;8.796;2023-02-13T01:29:42;7.50;98.80
3069;DHT22;1545;51.728;8.796;2023-02-13T01:32:07;7.40;98.80
3069;DHT22;1545;51.728;8.796;2023-02-13T01:34:33;7.40;98.80
3069;DHT22;1545;51.728;8.796;2023-02-13T01:36:59;7.40;98.80
3069;DHT22;1545;51.728;8.796;2023-02-13T01:39:24;7.40;98.80
3069;DHT22;1545;51.728;8.796;2023-02-13T01:41:50;7.40;98.80
3069;DHT22;1545;51.728;8.796;2023-02-13T01:44:54;7.20;98.80
3069;DHT22;1545;51.728;8.796;2023-02-13T01:47:44;7.30;98.80
3069;DHT22;1545;51.728;8.796;2023-02-13T01:50:16;7.20;98.80
3069;DHT22;1545;51.728;8.796;2023-02-13T01:52:51;7.20;98.80
3069;DHT22;1545;51.728;8.796;2023-02-13T01:55:18;7.20;98.80
3069;DHT22;1545;51.728;8.796;2023-02-13T01:57:49;7.20;98.80
3069;DHT22;1545;51.728;8.796;2023-02-13T02:00:16;7.20;98.80
3069;DHT22;1545;51.728;8.796;2023-02-13T02:02:47;7.10;98.80
3069;DHT22;1545;51.728;8.796;2023-02-13T02:05:15;7.00;98.80
3069;DHT22;1545;51.728;8.796;2023-02-13T02:07:42;7.00;98.80
3069;DHT22;1545;51.728;8.796;2023-02-13T02:10:16;7.00;98.80
3069;DHT22;1545;51.728;8.796;2023-02-13T02:12:46;7.00;98.80
3069;DHT22;1545;51.728;8.796;2023-02-13T02:15:14;7.00;98.80
3069;DHT22;1545;51.728;8.796;2023-02-13T02:17:39;7.00;98.80
3069;DHT22;1545;51.728;8.796;2023-02-13T02:28:37;6.90;98.80
3069;DHT22;1545;51.728;8.796;2023-02-13T02:31:40;6.90;98.80
3069;DHT22;1545;51.728;8.796;2023-02-13T02:34:29;6.90;98.80
3069;DHT22;1545;51.728;8.796;2023-02-13T02:45:25;6.80;98.80
3069;DHT22;1545;51.728;8.796;2023-02-13T02:47:59;6.80;98.80
3069;DHT22;1545;51.728;8.796;2023-02-13T02:50:58;6.80;98.80
3069;DHT22;1545;51.728;8.796;2023-02-13T02:53:50;6.80;98.80
3069;DHT22;1545;51.728;8.796;2023-02-13T02:56:25;6.80;98.80
3069;DHT22;1545;51.728;8.796;2023-02-13T02:58:55;6.80;98.80
3069;DHT22;1545;51.728;8.796;2023-02-13T03:01:41;6.80;98.80
3069;DHT22;1545;51.728;8.796;2023-02-13T03:04:40;6.80;98.80
3069;DHT22;1545;51.728;8.796;2023-02-13T03:07:26;6.80;98.80
3069;DHT22;1545;51.728;8.796;2023-02-13T03:09:56;6.80;98.80
3069;DHT22;1545;51.728;8.796;2023-02-13T03:12:53;6.80;98.80
3069;DHT22;1545;51.728;8.796;2023-02-13T03:15:41;6.80;98.80
3069;DHT22;1545;51.728;8.796;2023-02-13T03:18:28;6.80;98.80
3069;DHT22;1545;51.728;8.796;2023-02-13T03:21:47;6.80;98.80
3069;DHT22;1545;51.728;8.796;2023-02-13T03:28:00;6.90;98.80
3069;DHT22;1545;51.728;8.796;2023-02-13T03:39:18;6.80;98.80
3069;DHT22;1545;51.728;8.796;2023-02-13T03:44:54;6.80;98.80
3069;DHT22;1545;51.728;8.796;2023-02-13T03:47:42;6.80;98.80
3069;DHT22;1545;51.728;8.796;2023-02-13T03:50:08;6.80;98.80
3069;DHT22;1545;51.728;8.796;2023-02-13T03:55:09;6.90;98.80
3069;DHT22;1545;51.728;8.796;2023-02-13T03:57:58;6.90;98.80
3069;DHT22;1545;51.728;8.796;2023-02-13T04:00:48;6.80;98.80
3069;DHT22;1545;51.728;8.796;2023-02-13T04:03:24;6.80;98.80
3069;DHT22;1545;51.728;8.796;2023-02-13T04:05:55;6.90;98.80
3069;DHT22;1545;51.728;8.796;2023-02-13T04:08:21;6.90;98.80
3069;DHT22;1545;51.728;8.796;2023-02-13T04:10:59;6.90;98.80
3069;DHT22;1545;51.728;8.796;2023-02-13T04:13:49;7.00;98.80
3069;DHT22;1545;51.728;8.796;2023-02-13T04:16:20;7.00;98.80
3069;DHT22;1545;51.728;8.796;2023-02-13T04:18:48;7.00;98.80
3069;DHT22;1545;51.728;8.796;2023-02-13T04:21:16;7.00;98.80
3069;DHT22;1545;51.728;8.796;2023-02-13T04:23:42;7.00;98.80
3069;DHT22;1545;51.728;8.796;2023-02-13T04:26:14;7.00;98.80
3069;DHT22;1545;51.728;8.796;2023-02-13T04:28:40;7.00;98.80
3069;DHT22;1545;51.728;8.796;2023-02-13T04:31:06;7.10;98.80
3069;DHT22;1545;51.728;8.796;2023-02-13T04:33:31;7.10;98.80
3069;DHT22;1545;51.728;8.796;2023-02-13T04:35:57;7.00;98.80
3069;DHT22;1545;51.728;8.796;2023-02-13T04:38:22;7.10;98.80
3069;DHT22;1545;51.728;8.796;2023-02-13T04:40:48;7.10;98.80
3069;DHT22;1545;51.728;8.796;2023-02-13T04:43:13;7.10;98.80
3069;DHT22;1545;51.728;8.796;2023-02-13T04:45:39;7.10;98.80
3069;DHT22;1545;51.728;8.796;2023-02-13T04:48:04;7.10;98.80
3069;DHT22;1545;51.728;8.796;2023-02-13T04:50:29;7.10;98.80
3069;DHT22;1545;51.728;8.796;2023-02-13T04:52:56;7.10;98.80
3069;DHT22;1545;51.728;8.796;2023-02-13T04:55:23;7.10;98.80
3069;DHT22;1545;51.728;8.796;2023-02-13T04:57:51;7.10;98.80
3069;DHT22;1545;51.728;8.796;2023-02-13T05:00:19;7.00;98.80
3069;DHT22;1545;51.728;8.796;2023-02-13T05:02:45;7.00;98.80
3069;DHT22;1545;51.728;8.796;2023-02-13T05:05:10;7.00;98.80
3069;DHT22;1545;51.728;8.796;2023-02-13T05:07:36;7.00;98.80
3069;DHT22;1545;51.728;8.796;2023-02-13T05:10:01;7.00;98.80
3069;DHT22;1545;51.728;8.796;2023-02-13T05:12:27;6.90;98.80
3069;DHT22;1545;51.728;8.796;2023-02-13T05:14:52;6.80;98.80
3069;DHT22;1545;51.728;8.796;2023-02-13T05:17:18;6.80;98.80
3069;DHT22;1545;51.728;8.796;2023-02-13T05:19:43;6.80;98.80
3069;DHT22;1545;51.728;8.796;2023-02-13T05:22:09;6.80;98.80
3069;DHT22;1545;51.728;8.796;2023-02-13T05:24:54;6.70;98.80
3069;DHT22;1545;51.728;8.796;2023-02-13T05:27:19;6.80;98.80
3069;DHT22;1545;51.728;8.796;2023-02-13T05:29:45;6.70;98.80
3069;DHT22;1545;51.728;8.796;2023-02-13T05:32:10;6.70;98.80
3069;DHT22;1545;51.728;8.796;2023-02-13T05:34:36;6.60;98.80
3069;DHT22;1545;51.728;8.796;2023-02-13T05:37:01;6.70;98.80
3069;DHT22;1545;51.728;8.796;2023-02-13T05:39:27;6.60;98.80
3069;DHT22;1545;51.728;8.796;2023-02-13T05:41:52;6.60;98.80
3069;DHT22;1545;51.728;8.796;2023-02-13T05:44:18;6.60;98.80
3069;DHT22;1545;51.728;8.796;2023-02-13T05:46:43;6.60;98.80
3069;DHT22;1545;51.728;8.796;2023-02-13T05:49:10;6.60;98.80
3069;DHT22;1545;51.728;8.796;2023-02-13T05:51:36;6.60;98.80
3069;DHT22;1545;51.728;8.796;2023-02-13T05:54:02;6.60;98.80
3069;DHT22;1545;51.728;8.796;2023-02-13T05:56:28;6.50;98.80
3069;DHT22;1545;51.728;8.796;2023-02-13T05:58:54;6.40;98.80
3069;DHT22;1545;51.728;8.796;2023-02-13T06:01:21;6.40;98.80
3069;DHT22;1545;51.728;8.796;2023-02-13T06:03:46;6.50;98.80
3069;DHT22;1545;51.728;8.796;2023-02-13T06:06:12;6.50;98.80
3069;DHT22;1545;51.728;8.796;2023-02-13T06:08:38;6.50;98.80
3069;DHT22;1545;51.728;8.796;2023-02-13T06:11:03;6.60;98.80
3069;DHT22;1545;51.728;8.796;2023-02-13T06:13:29;6.50;98.80
3069;DHT22;1545;51.728;8.796;2023-02-13T06:15:55;6.50;98.80
3069;DHT22;1545;51.728;8.796;2023-02-13T06:18:20;6.50;98.80
3069;DHT22;1545;51.728;8.796;2023-02-13T06:20:46;6.50;98.80
3069;DHT22;1545;51.728;8.796;2023-02-13T06:23:11;6.50;98.80
3069;DHT22;1545;51.728;8.796;2023-02-13T06:25:37;6.50;98.80
3069;DHT22;1545;51.728;8.796;2023-02-13T06:28:03;6.50;98.80
3069;DHT22;1545;51.728;8.796;2023-02-13T06:30:29;6.50;98.80
3069;DHT22;1545;51.728;8.796;2023-02-13T06:32:55;6.40;98.80
3069;DHT22;1545;51.728;8.796;2023-02-13T06:35:20;6.50;98.80
3069;DHT22;1545;51.728;8.796;2023-02-13T06:37:46;6.50;98.80
3069;DHT22;1545;51.728;8.796;2023-02-13T06:40:13;6.60;98.80
3069;DHT22;1545;51.728;8.796;2023-02-13T06:42:41;6.50;98.80
3069;DHT22;1545;51.728;8.796;2023-02-13T06:45:06;6.50;98.80
3069;DHT22;1545;51.728;8.796;2023-02-13T06:47:32;6.50;98.80
3069;DHT22;1545;51.728;8.796;2023-02-13T06:49:58;6.60;98.80
3069;DHT22;1545;51.728;8.796;2023-02-13T06:52:23;6.60;98.40
3069;DHT22;1545;51.728;8.796;2023-02-13T06:54:49;6.60;98.50
3069;DHT22;1545;51.728;8.796;2023-02-13T06:57:14;6.60;98.80
3069;DHT22;1545;51.728;8.796;2023-02-13T06:59:40;6.70;98.70
3069;DHT22;1545;51.728;8.796;2023-02-13T07:02:05;6.60;98.20
3069;DHT22;1545;51.728;8.796;2023-02-13T07:04:31;6.60;98.10
3069;DHT22;1545;51.728;8.796;2023-02-13T07:06:56;6.60;97.80
3069;DHT22;1545;51.728;8.796;2023-02-13T07:09:23;6.60;97.80
3069;DHT22;1545;51.728;8.796;2023-02-13T07:11:49;6.50;97.80
3069;DHT22;1545;51.728;8.796;2023-02-13T07:14:14;6.50;98.00
3069;DHT22;1545;51.728;8.796;2023-02-13T07:16:40;6.50;98.30
3069;DHT22;1545;51.728;8.796;2023-02-13T07:19:05;6.50;98.50
3069;DHT22;1545;51.728;8.796;2023-02-13T07:21:31;6.50;98.40
3069;DHT22;1545;51.728;8.796;2023-02-13T07:23:56;6.50;98.50
3069;DHT22;1545;51.728;8.796;2023-02-13T07:26:22;6.50;98.50
3069;DHT22;1545;51.728;8.796;2023-02-13T07:28:47;6.50;98.50
3069;DHT22;1545;51.728;8.796;2023-02-13T07:31:13;6.50;98.50
3069;DHT22;1545;51.728;8.796;2023-02-13T07:33:38;6.50;98.60
3069;DHT22;1545;51.728;8.796;2023-02-13T07:36:04;6.50;98.80
3069;DHT22;1545;51.728;8.796;2023-02-13T07:38:31;6.50;98.80
3069;DHT22;1545;51.728;8.796;2023-02-13T07:41:01;6.50;98.80
3069;DHT22;1545;51.728;8.796;2023-02-13T07:43:27;6.60;98.80
3069;DHT22;1545;51.728;8.796;2023-02-13T07:45:56;6.70;98.80
3069;DHT22;1545;51.728;8.796;2023-02-13T07:48:22;6.80;98.80
3069;DHT22;1545;51.728;8.796;2023-02-13T07:50:49;6.80;98.60
3069;DHT22;1545;51.728;8.796;2023-02-13T07:53:14;6.80;98.10
3069;DHT22;1545;51.728;8.796;2023-02-13T07:55:40;6.80;98.00
3069;DHT22;1545;51.728;8.796;2023-02-13T07:58:05;6.80;98.20
3069;DHT22;1545;51.728;8.796;2023-02-13T08:00:31;6.80;98.00
3069;DHT22;1545;51.728;8.796;2023-02-13T08:03:00;6.80;97.60
3069;DHT22;1545;51.728;8.796;2023-02-13T08:05:27;6.80;97.20
3069;DHT22;1545;51.728;8.796;2023-02-13T08:07:52;6.80;97.10
3069;DHT22;1545;51.728;8.796;2023-02-13T08:10:18;6.80;97.20
3069;DHT22;1545;51.728;8.796;2023-02-13T08:13:03;6.80;97.30
3069;DHT22;1545;51.728;8.796;2023-02-13T08:15:29;6.70;97.60
3069;DHT22;1545;51.728;8.796;2023-02-13T08:17:55;6.70;97.70
3069;DHT22;1545;51.728;8.796;2023-02-13T08:20:20;6.80;97.70
3069;DHT22;1545;51.728;8.796;2023-02-13T08:22:46;6.90;97.40
3069;DHT22;1545;51.728;8.796;2023-02-13T08:25:12;7.00;97.50
3069;DHT22;1545;51.728;8.796;2023-02-13T08:27:38;7.10;97.20
3069;DHT22;1545;51.728;8.796;2023-02-13T08:30:04;7.20;96.90
3069;DHT22;1545;51.728;8.796;2023-02-13T08:32:30;7.30;96.40
3069;DHT22;1545;51.728;8.796;2023-02-13T08:34:56;7.40;95.90
3069;DHT22;1545;51.728;8.796;2023-02-13T08:37:23;7.50;95.70
3069;DHT22;1545;51.728;8.796;2023-02-13T08:39:48;7.60;94.90
3069;DHT22;1545;51.728;8.796;2023-02-13T08:42:14;7.70;94.00
3069;DHT22;1545;51.728;8.796;2023-02-13T08:44:40;7.70;93.40
3069;DHT22;1545;51.728;8.796;2023-02-13T08:47:07;7.50;93.70
3069;DHT22;1545;51.728;8.796;2023-02-13T08:49:33;7.40;94.30
3069;DHT22;1545;51.728;8.796;2023-02-13T08:51:59;7.30;95.00
3069;DHT22;1545;51.728;8.796;2023-02-13T08:54:25;7.40;94.70
3069;DHT22;1545;51.728;8.796;2023-02-13T08:56:52;7.40;94.70
3069;DHT22;1545;51.728;8.796;2023-02-13T08:59:17;7.40;94.60
3069;DHT22;1545;51.728;8.796;2023-02-13T09:01:43;7.40;94.70
3069;DHT22;1545;51.728;8.796;2023-02-13T09:04:09;7.50;94.60
3069;DHT22;1545;51.728;8.796;2023-02-13T09:06:34;7.40;94.40
3069;DHT22;1545;51.728;8.796;2023-02-13T09:09:00;7.50;94.50
3069;DHT22;1545;51.728;8.796;2023-02-13T09:11:25;7.30;94.30
3069;DHT22;1545;51.728;8.796;2023-02-13T09:13:54;7.00;94.90
3069;DHT22;1545;51.728;8.796;2023-02-13T09:16:20;7.00;95.70
3069;DHT22;1545;51.728;8.796;2023-02-13T09:18:47;6.90;96.00
3069;DHT22;1545;51.728;8.796;2023-02-13T09:21:13;7.20;96.00
3069;DHT22;1545;51.728;8.796;2023-02-13T09:23:39;7.50;95.00
3069;DHT22;1545;51.728;8.796;2023-02-13T09:26:08;7.80;94.30
3069;DHT22;1545;51.728;8.796;2023-02-13T09:28:35;8.10;94.20
3069;DHT22;1545;51.728;8.796;2023-02-13T09:31:12;8.40;92.40
3069;DHT22;1545;51.728;8.796;2023-02-13T09:33:39;8.50;91.20
3069;DHT22;1545;51.728;8.796;2023-02-13T09:36:10;8.50;90.50
3069;DHT22;1545;51.728;8.796;2023-02-13T09:38:36;8.40;90.70
3069;DHT22;1545;51.728;8.796;2023-02-13T09:41:09;8.30;91.00
3069;DHT22;1545;51.728;8.796;2023-02-13T09:43:42;8.30;91.40
3069;DHT22;1545;51.728;8.796;2023-02-13T09:46:19;8.50;91.50
3069;DHT22;1545;51.728;8.796;2023-02-13T09:48:49;8.80;91.50
3069;DHT22;1545;51.728;8.796;2023-02-13T09:51:18;9.10;90.00
3069;DHT22;1545;51.728;8.796;2023-02-13T09:53:55;9.30;89.60
3069;DHT22;1545;51.728;8.796;2023-02-13T09:56:40;9.50;88.50
3069;DHT22;1545;51.728;8.796;2023-02-13T10:02:22;9.30;87.40
3069;DHT22;1545;51.728;8.796;2023-02-13T10:04:56;8.90;87.50
3069;DHT22;1545;51.728;8.796;2023-02-13T10:07:59;8.50;88.80
3069;DHT22;1545;51.728;8.796;2023-02-13T10:16:11;8.00;92.20
3069;DHT22;1545;51.728;8.796;2023-02-13T10:18:59;8.20;92.10
3069;DHT22;1545;51.728;8.796;2023-02-13T10:21:37;8.00;92.10
3069;DHT22;1545;51.728;8.796;2023-02-13T10:24:27;7.90;93.10
3069;DHT22;1545;51.728;8.796;2023-02-13T10:26:56;7.80;93.10
3069;DHT22;1545;51.728;8.796;2023-02-13T10:29:45;7.80;93.50
3069;DHT22;1545;51.728;8.796;2023-02-13T10:35:40;8.30;93.60
3069;DHT22;1545;51.728;8.796;2023-02-13T10:38:15;8.30;91.00
3069;DHT22;1545;51.728;8.796;2023-02-13T10:40:52;8.60;91.10
3069;DHT22;1545;51.728;8.796;2023-02-13T10:43:20;8.70;90.40
3069;DHT22;1545;51.728;8.796;2023-02-13T10:54:32;8.70;90.40
3069;DHT22;1545;51.728;8.796;2023-02-13T10:57:33;8.80;89.80
3069;DHT22;1545;51.728;8.796;2023-02-13T11:02:31;8.50;90.40
3069;DHT22;1545;51.728;8.796;2023-02-13T11:05:11;8.80;90.50
3069;DHT22;1545;51.728;8.796;2023-02-13T11:07:38;9.00;90.30
3069;DHT22;1545;51.728;8.796;2023-02-13T11:10:22;8.80;89.70
3069;DHT22;1545;51.728;8.796;2023-02-13T11:12:48;8.80;90.00
3069;DHT22;1545;51.728;8.796;2023-02-13T11:15:24;9.30;89.00
3069;DHT22;1545;51.728;8.796;2023-02-13T11:17:51;9.50;88.10
3069;DHT22;1545;51.728;8.796;2023-02-13T11:22:56;9.40;86.50
3069;DHT22;1545;51.728;8.796;2023-02-13T11:25:36;9.20;87.40
3069;DHT22;1545;51.728;8.796;2023-02-13T11:28:17;9.10;87.80
3069;DHT22;1545;51.728;8.796;2023-02-13T11:30:44;8.80;88.80
3069;DHT22;1545;51.728;8.796;2023-02-13T11:33:23;8.40;89.90
3069;DHT22;1545;51.728;8.796;2023-02-13T11:36:05;8.20;91.70
3069;DHT22;1545;51.728;8.796;2023-02-13T11:38:30;8.30;92.50
3069;DHT22;1545;51.728;8.796;2023-02-13T11:41:08;8.40;92.10
3069;DHT22;1545;51.728;8.796;2023-02-13T11:43:49;8.50;92.80
3069;DHT22;1545;51.728;8.796;2023-02-13T11:46:19;8.60;92.50
3069;DHT22;1545;51.728;8.796;2023-02-13T11:48:59;8.70;92.40
3069;DHT22;1545;51.728;8.796;2023-02-13T11:51:44;8.80;90.80
3069;DHT22;1545;51.728;8.796;2023-02-13T11:57:08;8.80;90.80
3069;DHT22;1545;51.728;8.796;2023-02-13T11:59:43;8.80;92.90
3069;DHT22;1545;51.728;8.796;2023-02-13T12:02:20;8.90;92.30
3069;DHT22;1545;51.728;8.796;2023-02-13T12:04:51;9.10;92.60
3069;DHT22;1545;51.728;8.796;2023-02-13T12:07:29;8.90;91.80
3069;DHT22;1545;51.728;8.796;2023-02-13T12:12:50;9.10;89.80
3069;DHT22;1545;51.728;8.796;2023-02-13T12:18:31;9.10;88.70
3069;DHT22;1545;51.728;8.796;2023-02-13T12:21:19;9.10;89.60
3069;DHT22;1545;51.728;8.796;2023-02-13T12:23:57;9.00;90.80
3069;DHT22;1545;51.728;8.796;2023-02-13T12:26:54;8.70;92.20
3069;DHT22;1545;51.728;8.796;2023-02-13T12:32:25;8.80;93.30
3069;DHT22;1545;51.728;8.796;2023-02-13T12:35:27;8.80;93.20
3069;DHT22;1545;51.728;8.796;2023-02-13T12:38:03;9.00;94.20
3069;DHT22;1545;51.728;8.796;2023-02-13T12:52:17;9.20;92.80
3069;DHT22;1545;51.728;8.796;2023-02-13T12:55:15;9.10;92.50
3069;DHT22;1545;51.728;8.796;2023-02-13T13:03:08;9.10;92.30
3069;DHT22;1545;51.728;8.796;2023-02-13T13:06:03;9.30;93.20
3069;DHT22;1545;51.728;8.796;2023-02-13T13:08:45;9.30;91.40
3069;DHT22;1545;51.728;8.796;2023-02-13T13:14:40;9.50;92.30
3069;DHT22;1545;51.728;8.796;2023-02-13T13:22:54;9.60;91.30
3069;DHT22;1545;51.728;8.796;2023-02-13T13:27:52;9.70;90.50
3069;DHT22;1545;51.728;8.796;2023-02-13T13:30:26;9.70;90.30
3069;DHT22;1545;51.728;8.796;2023-02-13T13:33:13;9.80;90.70
3069;DHT22;1545;51.728;8.796;2023-02-13T13:35:43;9.90;90.70
3069;DHT22;1545;51.728;8.796;2023-02-13T13:38:29;9.80;90.80
3069;DHT22;1545;51.728;8.796;2023-02-13T13:52:25;9.90;90.90
3069;DHT22;1545;51.728;8.796;2023-02-13T13:54:51;10.10;89.80
3069;DHT22;1545;51.728;8.796;2023-02-13T13:57:22;10.10;88.90
3069;DHT22;1545;51.728;8.796;2023-02-13T14:05:16;10.30;88.30
3069;DHT22;1545;51.728;8.796;2023-02-13T14:07:42;10.30;87.40
3069;DHT22;1545;51.728;8.796;2023-02-13T14:12:48;10.40;88.00
3069;DHT22;1545;51.728;8.796;2023-02-13T14:17:59;10.40;88.00
3069;DHT22;1545;51.728;8.796;2023-02-13T14:28:53;10.40;89.00
3069;DHT22;1545;51.728;8.796;2023-02-13T14:31:28;10.40;88.70
3069;DHT22;1545;51.728;8.796;2023-02-13T14:34:04;10.40;88.50
3069;DHT22;1545;51.728;8.796;2023-02-13T14:36:33;10.40;88.50
3069;DHT22;1545;51.728;8.796;2023-02-13T14:39:02;10.40;88.90
3069;DHT22;1545;51.728;8.796;2023-02-13T14:47:00;10.30;89.90
3069;DHT22;1545;51.728;8.796;2023-02-13T14:49:29;10.30;89.70
3069;DHT22;1545;51.728;8.796;2023-02-13T14:51:58;10.30;89.90
3069;DHT22;1545;51.728;8.796;2023-02-13T14:54:41;10.40;89.70
3069;DHT22;1545;51.728;8.796;2023-02-13T14:57:22;10.40;89.80
3069;DHT22;1545;51.728;8.796;2023-02-13T14:59:52;10.40;89.50
3069;DHT22;1545;51.728;8.796;2023-02-13T15:02:27;10.40;89.60
3069;DHT22;1545;51.728;8.796;2023-02-13T15:05:13;10.40;90.00
3069;DHT22;1545;51.728;8.796;2023-02-13T15:07:49;10.40;89.20
3069;DHT22;1545;51.728;8.796;2023-02-13T15:10:41;10.40;88.80
3069;DHT22;1545;51.728;8.796;2023-02-13T15:13:16;10.40;88.90
3069;DHT22;1545;51.728;8.796;2023-02-13T15:15:44;10.50;89.00
3069;DHT22;1545;51.728;8.796;2023-02-13T15:18:19;10.30;89.80
3069;DHT22;1545;51.728;8.796;2023-02-13T15:20:45;10.30;90.20
3069;DHT22;1545;51.728;8.796;2023-02-13T15:23:25;10.30;89.90
3069;DHT22;1545;51.728;8.796;2023-02-13T15:25:58;10.20;90.60
3069;DHT22;1545;51.728;8.796;2023-02-13T15:28:25;10.20;91.20
3069;DHT22;1545;51.728;8.796;2023-02-13T15:31:03;10.10;91.40
3069;DHT22;1545;51.728;8.796;2023-02-13T15:33:44;10.10;91.70
3069;DHT22;1545;51.728;8.796;2023-02-13T15:36:23;9.90;92.20
3069;DHT22;1545;51.728;8.796;2023-02-13T15:38:58;9.90;92.90
3069;DHT22;1545;51.728;8.796;2023-02-13T15:41:42;9.80;93.20
3069;DHT22;1545;51.728;8.796;2023-02-13T15:44:21;9.70;93.60
3069;DHT22;1545;51.728;8.796;2023-02-13T15:46:49;9.70;94.10
3069;DHT22;1545;51.728;8.796;2023-02-13T15:49:18;9.60;93.90
3069;DHT22;1545;51.728;8.796;2023-02-13T15:51:45;9.60;93.60
3069;DHT22;1545;51.728;8.796;2023-02-13T15:56:47;9.40;94.20
3069;DHT22;1545;51.728;8.796;2023-02-13T15:59:14;9.30;94.30
3069;DHT22;1545;51.728;8.796;2023-02-13T16:01:41;9.30;94.20
3069;DHT22;1545;51.728;8.796;2023-02-13T16:04:13;9.20;94.10
3069;DHT22;1545;51.728;8.796;2023-02-13T16:06:41;9.20;93.80
3069;DHT22;1545;51.728;8.796;2023-02-13T16:09:31;9.10;93.80
3069;DHT22;1545;51.728;8.796;2023-02-13T16:12:06;9.00;93.90
3069;DHT22;1545;51.728;8.796;2023-02-13T16:14:58;9.00;94.00
3069;DHT22;1545;51.728;8.796;2023-02-13T16:17:29;8.90;94.10
3069;DHT22;1545;51.728;8.796;2023-02-13T16:20:02;8.80;94.20
3069;DHT22;1545;51.728;8.796;2023-02-13T16:22:36;8.70;94.50
3069;DHT22;1545;51.728;8.796;2023-02-13T16:25:50;8.70;94.60
3069;DHT22;1545;51.728;8.796;2023-02-13T16:28:02;8.60;94.80
3069;DHT22;1545;51.728;8.796;2023-02-13T16:30:42;8.40;95.10
3069;DHT22;1545;51.728;8.796;2023-02-13T16:35:44;8.10;95.80
3069;DHT22;1545;51.728;8.796;2023-02-13T16:40:47;7.70;96.40
3069;DHT22;1545;51.728;8.796;2023-02-13T16:43:35;7.60;96.90
3069;DHT22;1545;51.728;8.796;2023-02-13T16:48:58;7.30;97.60
3069;DHT22;1545;51.728;8.796;2023-02-13T16:54:19;7.00;98.40
3069;DHT22;1545;51.728;8.796;2023-02-13T16:56:58;6.90;98.80
3069;DHT22;1545;51.728;8.796;2023-02-13T17:02:31;6.70;98.80
3069;DHT22;1545;51.728;8.796;2023-02-13T17:05:18;6.70;98.80
3069;DHT22;1545;51.728;8.796;2023-02-13T17:07:46;6.60;98.80
3069;DHT22;1545;51.728;8.796;2023-02-13T17:10:32;6.60;98.80
3069;DHT22;1545;51.728;8.796;2023-02-13T17:13:11;6.50;98.80
3069;DHT22;1545;51.728;8.796;2023-02-13T17:15:44;6.50;98.80
3069;DHT22;1545;51.728;8.796;2023-02-13T17:18:10;6.50;98.80
3069;DHT22;1545;51.728;8.796;2023-02-13T17:20:36;6.50;98.80
3069;DHT22;1545;51.728;8.796;2023-02-13T17:23:06;6.50;98.80
3069;DHT22;1545;51.728;8.796;2023-02-13T17:25:34;6.40;98.80
3069;DHT22;1545;51.728;8.796;2023-02-13T17:28:21;6.40;98.80
3069;DHT22;1545;51.728;8.796;2023-02-13T17:30:50;6.30;98.80
3069;DHT22;1545;51.728;8.796;2023-02-13T17:33:23;6.30;98.80
3069;DHT22;1545;51.728;8.796;2023-02-13T17:35:49;6.50;98.80
3069;DHT22;1545;51.728;8.796;2023-02-13T17:38:15;6.50;98.80
3069;DHT22;1545;51.728;8.796;2023-02-13T17:40:42;6.50;98.80
3069;DHT22;1545;51.728;8.796;2023-02-13T17:43:10;6.50;98.80
3069;DHT22;1545;51.728;8.796;2023-02-13T17:45:36;6.40;98.80
3069;DHT22;1545;51.728;8.796;2023-02-13T17:48:02;6.30;98.80
3069;DHT22;1545;51.728;8.796;2023-02-13T17:50:30;6.20;98.80
3069;DHT22;1545;51.728;8.796;2023-02-13T17:52:56;6.30;98.80
3069;DHT22;1545;51.728;8.796;2023-02-13T17:55:27;6.30;98.80
3069;DHT22;1545;51.728;8.796;2023-02-13T17:57:54;6.40;98.80
3069;DHT22;1545;51.728;8.796;2023-02-13T18:00:25;6.50;98.80
3069;DHT22;1545;51.728;8.796;2023-02-13T18:02:52;6.60;98.80
3069;DHT22;1545;51.728;8.796;2023-02-13T18:05:18;6.70;98.80
3069;DHT22;1545;51.728;8.796;2023-02-13T18:07:45;6.70;98.80
3069;DHT22;1545;51.728;8.796;2023-02-13T18:10:20;6.80;98.80
3069;DHT22;1545;51.728;8.796;2023-02-13T18:12:47;6.80;98.80
3069;DHT22;1545;51.728;8.796;2023-02-13T18:15:13;6.80;98.80
3069;DHT22;1545;51.728;8.796;2023-02-13T18:17:39;6.90;98.80
3069;DHT22;1545;51.728;8.796;2023-02-13T18:20:06;7.00;98.80
3069;DHT22;1545;51.728;8.796;2023-02-13T18:22:32;7.00;98.80
3069;DHT22;1545;51.728;8.796;2023-02-13T18:24:57;7.00;98.80
3069;DHT22;1545;51.728;8.796;2023-02-13T18:27:22;7.00;98.80
3069;DHT22;1545;51.728;8.796;2023-02-13T18:29:50;7.10;98.80
3069;DHT22;1545;51.728;8.796;2023-02-13T18:32:16;7.10;98.80
3069;DHT22;1545;51.728;8.796;2023-02-13T18:34:41;7.10;98.80
3069;DHT22;1545;51.728;8.796;2023-02-13T18:37:07;7.10;98.80
3069;DHT22;1545;51.728;8.796;2023-02-13T18:39:33;7.10;98.80
3069;DHT22;1545;51.728;8.796;2023-02-13T18:41:59;7.00;98.80
3069;DHT22;1545;51.728;8.796;2023-02-13T18:44:25;7.00;98.80
3069;DHT22;1545;51.728;8.796;2023-02-13T18:46:50;7.00;98.80
3069;DHT22;1545;51.728;8.796;2023-02-13T18:49:15;7.10;98.80
3069;DHT22;1545;51.728;8.796;2023-02-13T18:51:41;7.00;98.80
3069;DHT22;1545;51.728;8.796;2023-02-13T18:54:07;7.00;98.80
3069;DHT22;1545;51.728;8.796;2023-02-13T18:56:33;7.00;98.80
3069;DHT22;1545;51.728;8.796;2023-02-13T18:58:59;6.90;98.80
3069;DHT22;1545;51.728;8.796;2023-02-13T19:01:24;7.00;98.80
3069;DHT22;1545;51.728;8.796;2023-02-13T19:03:51;7.00;98.80
3069;DHT22;1545;51.728;8.796;2023-02-13T19:06:20;7.00;98.80
3069;DHT22;1545;51.728;8.796;2023-02-13T19:08:47;6.90;98.80
3069;DHT22;1545;51.728;8.796;2023-02-13T19:11:15;6.90;98.80
3069;DHT22;1545;51.728;8.796;2023-02-13T19:13:41;6.90;98.80
3069;DHT22;1545;51.728;8.796;2023-02-13T19:16:15;6.90;98.80